Time;durP1;ratioP1;P1;durP2;ratioP2;P2;SDS_P1;SDS_P2;PMS_P1;PMS_P2;Temp;Humidity;BMP_temperature;BMP_pressure;BME280_temperature;BME280_humidity;BME280_pressure;Samples;Min_cycle;Max_cycle;Signal;HPM_P1;HPM_P2
2022/07/16 00:03:54;;;;;;;2.67;2.05;;;17.60;78.10;;;;;;5030814;28;20057;-73
2022/07/16 00:06:27;;;;;;;4.13;2.28;;;17.60;78.50;;;;;;5046963;28;20041;-72
2022/07/16 00:08:58;;;;;;;5.10;2.40;;;17.50;78.50;;;;;;5040448;28;20064;-72
2022/07/16 00:11:30;;;;;;;3.15;2.30;;;17.50;78.50;;;;;;5039110;28;20083;-73
2022/07/16 00:14:02;;;;;;;6.97;2.35;;;17.40;78.50;;;;;;5030438;28;20528;-73
2022/07/16 00:16:33;;;;;;;3.88;2.20;;;17.40;78.80;;;;;;5039276;28;20501;-72
2022/07/16 00:19:23;;;;;;;3.80;2.90;;;17.30;79.00;;;;;;5038568;28;20048;-72
2022/07/16 00:21:56;;;;;;;3.03;2.15;;;17.20;79.20;;;;;;5036722;28;20041;-72
2022/07/16 00:24:28;;;;;;;;;;;17.00;79.60;;;;;;5032095;28;20040;-73
2022/07/16 00:27:00;;;;;;;3.78;2.35;;;17.00;79.60;;;;;;5043432;28;19925;-72
2022/07/16 00:29:32;;;;;;;4.15;2.45;;;17.00;79.60;;;;;;5039477;23;20136;-69
2022/07/16 00:32:04;;;;;;;5.80;2.30;;;17.00;79.60;;;;;;5033307;28;20044;-69
2022/07/16 00:34:35;;;;;;;3.88;2.65;;;17.00;79.70;;;;;;5032361;28;20064;-69
2022/07/16 00:37:07;;;;;;;3.95;2.42;;;17.00;79.50;;;;;;5014610;28;20527;-69
2022/07/16 00:39:39;;;;;;;4.15;2.90;;;16.90;79.50;;;;;;5043086;28;20047;-68
2022/07/16 00:42:11;;;;;;;3.90;2.67;;;16.80;80.00;;;;;;5050685;28;20041;-69
2022/07/16 00:44:42;;;;;;;3.05;2.10;;;16.80;80.20;;;;;;5035285;28;20053;-69
2022/07/16 00:47:14;;;;;;;3.17;2.72;;;16.70;80.30;;;;;;5053156;28;20067;-69
2022/07/16 00:49:46;;;;;;;6.13;2.65;;;16.70;80.40;;;;;;5032784;28;20048;-70
2022/07/16 00:52:17;;;;;;;6.05;3.13;;;16.70;80.70;;;;;;5042019;28;20037;-69
2022/07/16 00:54:49;;;;;;;3.95;2.30;;;16.70;80.90;;;;;;5050299;28;20411;-69
2022/07/16 00:57:21;;;;;;;3.25;2.55;;;16.60;81.10;;;;;;5051305;28;20045;-69
2022/07/16 00:59:48;;;;;;;3.00;2.70;;;16.60;81.40;;;;;;5046591;28;20056;-69
2022/07/16 01:02:19;;;;;;;5.10;3.95;;;16.60;81.40;;;;;;5051697;28;20041;-69
2022/07/16 01:04:52;;;;;;;4.18;2.60;;;16.50;81.40;;;;;;5051141;28;20124;-69
2022/07/16 01:07:24;;;;;;;4.45;2.47;;;16.50;81.50;;;;;;5052044;28;20505;-69
2022/07/16 01:09:57;;;;;;;3.55;2.42;;;16.50;81.50;;;;;;5049496;28;20126;-69
2022/07/16 01:12:29;;;;;;;2.90;2.60;;;16.50;81.50;;;;;;5052955;28;20409;-69
2022/07/16 01:15:02;;;;;;;4.57;2.65;;;16.60;81.80;;;;;;5052498;28;20445;-69
2022/07/16 01:17:34;;;;;;;3.35;2.30;;;16.50;81.80;;;;;;5052981;28;20041;-69
2022/07/16 01:20:06;;;;;;;4.05;2.40;;;16.50;82.10;;;;;;5032255;28;20497;-69
2022/07/16 01:22:38;;;;;;;4.10;2.70;;;16.50;82.40;;;;;;5052758;28;20055;-69
2022/07/16 01:25:11;;;;;;;4.25;2.38;;;16.40;82.70;;;;;;5052564;28;20041;-69
2022/07/16 01:27:43;;;;;;;3.95;2.30;;;16.40;83.00;;;;;;5052816;28;20045;-69
2022/07/16 01:30:15;;;;;;;4.00;2.75;;;16.40;83.20;;;;;;5034678;28;20435;-70
2022/07/16 01:32:46;;;;;;;5.43;2.70;;;16.40;83.30;;;;;;5051519;28;20071;-69
2022/07/16 01:35:18;;;;;;;3.85;2.80;;;16.40;83.30;;;;;;5051771;28;20045;-69
2022/07/16 01:37:50;;;;;;;4.97;2.65;;;16.40;83.20;;;;;;5052559;28;20037;-68
2022/07/16 01:40:22;;;;;;;5.25;2.50;;;16.30;83.30;;;;;;5051816;28;20047;-69
2022/07/16 01:42:53;;;;;;;6.97;3.28;;;16.30;83.40;;;;;;5052542;28;20037;-69
2022/07/16 01:45:25;;;;;;;4.93;2.97;;;16.30;83.40;;;;;;5035358;28;20430;-68
2022/07/16 01:47:58;;;;;;;4.90;2.63;;;16.40;83.30;;;;;;5031596;28;20067;-71
2022/07/16 01:50:29;;;;;;;2.75;2.45;;;16.30;83.50;;;;;;5045906;28;20428;-68
2022/07/16 01:53:01;;;;;;;5.03;2.90;;;16.20;83.50;;;;;;5048832;28;20099;-69
2022/07/16 01:55:36;;;;;;;5.95;2.88;;;16.30;83.80;;;;;;5034173;28;20045;-69
2022/07/16 01:58:11;;;;;;;4.45;3.28;;;16.20;84.00;;;;;;5051216;28;20043;-69
2022/07/16 02:00:45;;;;;;;3.78;2.70;;;16.00;84.10;;;;;;5049552;28;20066;-69
2022/07/16 02:03:17;;;;;;;3.60;2.53;;;16.00;84.30;;;;;;5052381;28;20396;-68
2022/07/16 02:05:49;;;;;;;7.30;2.88;;;15.90;84.40;;;;;;5051888;28;20056;-68
2022/07/16 02:08:20;;;;;;;4.45;2.75;;;15.90;84.60;;;;;;5050979;28;20099;-69
2022/07/16 02:10:52;;;;;;;4.18;2.67;;;15.80;84.90;;;;;;5051923;28;20037;-69
2022/07/16 02:13:24;;;;;;;4.00;2.67;;;15.70;85.20;;;;;;5052101;28;20055;-70
2022/07/16 02:15:56;;;;;;;6.30;3.00;;;15.70;85.40;;;;;;5051690;28;20041;-68
2022/07/16 02:18:27;;;;;;;3.67;3.20;;;15.60;85.70;;;;;;5034216;28;20516;-69
2022/07/16 02:20:59;;;;;;;5.20;2.80;;;15.60;85.70;;;;;;5047725;28;20041;-68
2022/07/16 02:23:31;;;;;;;5.20;2.88;;;15.60;85.80;;;;;;5051834;28;20041;-69
2022/07/16 02:26:03;;;;;;;3.83;3.10;;;15.50;85.90;;;;;;5030699;28;20052;-68
2022/07/16 02:28:34;;;;;;;3.70;2.80;;;15.40;86.30;;;;;;5035109;28;20037;-69
2022/07/16 02:31:06;;;;;;;4.43;3.38;;;15.50;86.40;;;;;;5032044;28;20049;-69
2022/07/16 02:33:38;;;;;;;4.78;2.92;;;15.50;86.30;;;;;;5028585;28;20052;-68
2022/07/16 02:36:10;;;;;;;5.72;3.10;;;15.40;86.30;;;;;;5051662;28;20051;-68
2022/07/16 02:38:42;;;;;;;3.65;3.13;;;15.40;86.50;;;;;;5050168;28;20043;-68
2022/07/16 02:41:13;;;;;;;6.13;3.20;;;15.30;86.70;;;;;;5033931;28;20049;-69
2022/07/16 02:43:45;;;;;;;4.75;3.05;;;15.20;87.20;;;;;;5051906;28;20076;-69
2022/07/16 02:46:17;;;;;;;5.10;3.28;;;15.10;87.60;;;;;;5044412;28;20046;-69
2022/07/16 02:48:48;;;;;;;4.45;3.20;;;15.10;87.80;;;;;;5038326;28;20049;-69
2022/07/16 02:51:20;;;;;;;4.75;3.08;;;15.00;88.20;;;;;;5026219;28;20072;-68
2022/07/16 02:53:52;;;;;;;5.78;3.17;;;14.90;88.20;;;;;;5051770;28;20055;-69
2022/07/16 02:56:23;;;;;;;4.80;3.30;;;14.90;88.40;;;;;;5051861;28;20047;-69
2022/07/16 02:58:55;;;;;;;7.50;3.20;;;14.90;88.70;;;;;;5049737;28;20039;-69
2022/07/16 03:01:27;;;;;;;6.78;3.72;;;14.80;88.80;;;;;;5051130;28;20044;-69
2022/07/16 03:03:59;;;;;;;5.88;3.28;;;14.80;89.00;;;;;;5049077;28;20052;-68
2022/07/16 03:06:31;;;;;;;4.97;3.15;;;14.80;89.20;;;;;;5051591;28;20048;-69
2022/07/16 03:09:03;;;;;;;6.35;3.40;;;14.80;89.30;;;;;;5033622;28;20073;-69
2022/07/16 03:11:34;;;;;;;6.65;3.75;;;14.70;89.30;;;;;;5051921;28;20041;-69
2022/07/16 03:14:06;;;;;;;7.13;3.67;;;14.70;89.40;;;;;;5054360;28;20049;-69
2022/07/16 03:16:38;;;;;;;4.60;3.28;;;14.70;89.50;;;;;;5055705;28;20488;-68
2022/07/16 03:19:10;;;;;;;3.92;3.53;;;14.70;89.50;;;;;;5055352;28;20437;-69
2022/07/16 03:21:41;;;;;;;4.47;3.55;;;14.60;90.10;;;;;;5056142;28;20045;-69
2022/07/16 03:24:13;;;;;;;6.38;3.60;;;14.60;90.20;;;;;;5051168;28;20045;-71
2022/07/16 03:26:45;;;;;;;6.05;3.83;;;14.60;90.00;;;;;;5056036;28;20037;-68
2022/07/16 03:29:16;;;;;;;6.13;3.97;;;14.60;90.00;;;;;;5054254;28;20055;-71
2022/07/16 03:31:48;;;;;;;4.20;3.72;;;14.60;90.00;;;;;;5055163;28;20412;-72
2022/07/16 03:34:20;;;;;;;6.35;3.47;;;14.60;90.20;;;;;;5037210;28;20523;-73
2022/07/16 03:36:52;;;;;;;7.85;3.72;;;14.50;90.20;;;;;;5037110;28;20529;-71
2022/07/16 03:39:23;;;;;;;7.43;3.15;;;14.50;90.20;;;;;;5053896;28;20052;-71
2022/07/16 03:41:55;;;;;;;7.85;3.22;;;14.50;90.30;;;;;;5054881;28;20039;-71
2022/07/16 03:44:27;;;;;;;7.07;3.50;;;14.50;90.20;;;;;;5040056;28;20114;-71
2022/07/16 03:46:59;;;;;;;4.85;3.63;;;14.40;90.40;;;;;;5036898;28;20394;-71
2022/07/16 03:49:31;;;;;;;6.13;3.65;;;14.40;90.50;;;;;;5032834;28;20041;-71
2022/07/16 03:52:03;;;;;;;6.40;3.40;;;14.40;90.50;;;;;;5051936;28;20404;-71
2022/07/16 03:54:34;;;;;;;6.47;3.45;;;14.30;90.50;;;;;;5054977;28;20072;-69
2022/07/16 03:57:06;;;;;;;5.53;3.28;;;14.30;90.60;;;;;;5037356;28;20040;-69
2022/07/16 03:59:38;;;;;;;6.53;3.63;;;14.30;90.70;;;;;;5054092;28;20037;-69
2022/07/16 04:02:09;;;;;;;9.43;3.58;;;14.30;90.90;;;;;;5034119;28;20095;-69
2022/07/16 04:04:41;;;;;;;10.02;3.92;;;14.30;91.00;;;;;;5053500;28;20041;-69
2022/07/16 04:07:13;;;;;;;4.55;4.10;;;14.30;91.00;;;;;;5044781;28;20037;-69
2022/07/16 04:09:45;;;;;;;4.80;3.58;;;14.20;91.40;;;;;;5035995;28;20041;-69
2022/07/16 04:12:17;;;;;;;4.20;3.58;;;14.20;91.50;;;;;;5040169;28;20037;-69
2022/07/16 04:14:49;;;;;;;4.95;4.05;;;14.20;91.20;;;;;;5053603;28;20045;-69
2022/07/16 04:17:21;;;;;;;6.68;3.33;;;14.20;91.30;;;;;;5055366;28;20044;-69
2022/07/16 04:19:53;;;;;;;7.75;3.55;;;14.30;91.40;;;;;;5051882;28;20036;-69
2022/07/16 04:22:25;;;;;;;10.10;5.32;;;14.30;91.40;;;;;;5054777;28;20397;-68
2022/07/16 04:24:52;;;;;;;5.82;3.30;;;14.30;91.50;;;;;;5053565;28;20122;-69
2022/07/16 04:27:23;;;;;;;5.57;3.53;;;14.20;91.50;;;;;;5020825;28;20045;-69
2022/07/16 04:29:55;;;;;;;5.72;3.80;;;14.20;91.60;;;;;;5053091;28;20060;-69
2022/07/16 04:32:27;;;;;;;4.25;3.70;;;14.30;91.70;;;;;;5051045;28;20044;-69
2022/07/16 04:34:58;;;;;;;5.15;3.53;;;14.30;91.70;;;;;;5049252;28;20063;-68
2022/07/16 04:37:30;;;;;;;7.20;4.20;;;14.30;91.80;;;;;;5046108;28;20045;-69
2022/07/16 04:40:04;;;;;;;9.10;3.85;;;14.30;91.80;;;;;;5052369;28;20037;-69
2022/07/16 04:42:43;;;;;;;9.43;4.13;;;14.40;91.80;;;;;;5044794;28;20040;-69
2022/07/16 04:45:15;;;;;;;10.40;3.83;;;14.40;91.80;;;;;;5053970;28;20037;-70
2022/07/16 04:47:46;;;;;;;10.07;3.88;;;14.50;91.70;;;;;;5054165;28;20033;-69
2022/07/16 04:50:18;;;;;;;11.88;4.45;;;14.60;91.70;;;;;;5036560;28;20405;-69
2022/07/16 04:52:50;;;;;;;20.90;4.07;;;14.60;91.60;;;;;;5045905;28;20432;-70
2022/07/16 04:55:21;;;;;;;18.67;4.03;;;14.70;91.50;;;;;;5047013;28;20079;-70
2022/07/16 04:57:53;;;;;;;16.38;4.05;;;14.80;91.70;;;;;;5053687;28;20137;-70
2022/07/16 05:00:26;;;;;;;12.27;3.90;;;14.70;91.80;;;;;;5052360;28;20039;-70
2022/07/16 05:02:58;;;;;;;12.02;4.82;;;14.80;91.90;;;;;;5053906;28;20056;-69
2022/07/16 05:05:32;;;;;;;19.27;7.00;;;14.80;92.00;;;;;;5053684;28;20055;-69
2022/07/16 05:08:07;;;;;;;26.85;10.88;;;14.90;91.90;;;;;;5052413;28;20048;-70
2022/07/16 05:10:38;;;;;;;24.80;9.82;;;15.00;92.20;;;;;;5048789;28;20045;-69
2022/07/16 05:13:10;;;;;;;19.10;9.07;;;15.00;92.30;;;;;;5052882;28;20447;-70
2022/07/16 05:15:42;;;;;;;15.30;7.13;;;15.10;92.20;;;;;;5053435;28;20037;-69
2022/07/16 05:18:14;;;;;;;10.32;5.43;;;15.10;92.30;;;;;;5052007;28;20052;-70
2022/07/16 05:20:41;;;;;;;7.60;4.90;;;15.10;92.20;;;;;;5051265;28;20048;-69
2022/07/16 05:23:12;;;;;;;7.10;4.80;;;15.20;92.20;;;;;;5044539;28;20041;-69
2022/07/16 05:25:44;;;;;;;7.43;4.18;;;15.30;92.10;;;;;;5051664;28;20033;-69
2022/07/16 05:28:16;;;;;;;6.75;4.10;;;15.30;92.00;;;;;;5052239;28;20147;-69
2022/07/16 05:30:47;;;;;;;6.40;4.43;;;15.40;91.90;;;;;;5051845;28;20120;-70
2022/07/16 05:33:19;;;;;;;5.05;4.03;;;15.40;91.70;;;;;;5024344;28;20417;-70
2022/07/16 05:35:51;;;;;;;7.72;4.10;;;15.50;91.60;;;;;;5032688;28;20045;-70
2022/07/16 05:38:23;;;;;;;9.25;4.35;;;15.60;91.40;;;;;;5051431;28;20520;-70
2022/07/16 05:40:54;;;;;;;10.75;4.45;;;15.60;91.00;;;;;;5052978;28;20048;-69
2022/07/16 05:43:26;;;;;;;16.92;5.38;;;15.70;90.40;;;;;;5042539;28;20077;-69
2022/07/16 05:45:58;;;;;;;10.55;6.50;;;15.70;90.10;;;;;;5047084;28;20071;-70
2022/07/16 05:48:30;;;;;;;15.68;5.65;;;15.80;91.30;;;;;;5052065;28;20033;-70
2022/07/16 05:51:01;;;;;;;6.70;4.97;;;15.80;91.90;;;;;;5051361;28;20040;-70
2022/07/16 05:53:33;;;;;;;8.85;5.55;;;15.90;91.40;;;;;;5050767;28;20045;-70
2022/07/16 05:56:05;;;;;;;5.93;4.80;;;15.90;91.20;;;;;;5049800;28;20517;-71
2022/07/16 05:58:37;;;;;;;9.88;4.45;;;16.00;90.70;;;;;;5033197;28;20048;-70
2022/07/16 06:01:09;;;;;;;5.47;4.05;;;16.00;90.00;;;;;;5051266;28;20056;-70
2022/07/16 06:03:41;;;;;;;5.20;3.92;;;16.10;90.20;;;;;;5031618;28;20589;-70
2022/07/16 06:06:12;;;;;;;10.77;4.75;;;16.50;89.40;;;;;;5036801;28;20041;-70
2022/07/16 06:08:44;;;;;;;9.30;4.85;;;16.70;88.80;;;;;;5051803;28;20056;-70
2022/07/16 06:11:16;;;;;;;7.40;4.32;;;16.90;88.10;;;;;;5052409;28;20047;-69
2022/07/16 06:13:48;;;;;;;9.18;3.90;;;17.10;87.60;;;;;;5031226;28;20037;-69
2022/07/16 06:16:20;;;;;;;5.78;3.75;;;17.20;85.30;;;;;;5040517;28;20044;-70
2022/07/16 06:18:53;;;;;;;5.43;3.53;;;17.40;84.40;;;;;;5032722;28;20053;-70
2022/07/16 06:21:24;;;;;;;7.50;4.25;;;17.50;83.30;;;;;;5051910;28;20041;-71
2022/07/16 06:23:56;;;;;;;8.57;3.50;;;17.50;83.10;;;;;;5052825;28;20043;-70
2022/07/16 06:26:28;;;;;;;5.88;3.83;;;17.50;84.20;;;;;;5051567;28;20037;-70
2022/07/16 06:29:00;;;;;;;6.55;3.60;;;17.50;83.50;;;;;;5032254;28;20413;-69
2022/07/16 06:31:31;;;;;;;16.65;4.55;;;17.50;83.70;;;;;;5055209;23;20061;-90
2022/07/16 06:33:58;;;;;;;8.75;3.90;;;17.50;83.80;;;;;;5051082;28;20028;-89
2022/07/16 06:36:25;;;;;;;8.18;3.80;;;17.60;83.00;;;;;;5042964;28;20022;-89
2022/07/16 06:38:52;;;;;;;11.40;3.70;;;17.70;82.10;;;;;;5064695;28;20108;-88
2022/07/16 06:41:18;;;;;;;6.68;2.97;;;17.80;81.50;;;;;;5074287;23;20059;-73
2022/07/16 06:43:50;;;;;;;5.93;3.20;;;17.80;80.90;;;;;;5012686;28;20385;-73
2022/07/16 06:46:22;;;;;;;11.93;4.80;;;18.00;80.70;;;;;;5009668;28;20038;-73
2022/07/16 06:48:53;;;;;;;13.27;3.38;;;18.10;80.60;;;;;;5011222;28;20516;-73
2022/07/16 06:51:26;;;;;;;10.85;3.65;;;18.10;81.00;;;;;;5012153;28;20425;-73
2022/07/16 06:53:58;;;;;;;9.20;5.43;;;18.20;81.20;;;;;;5015606;28;20046;-70
2022/07/16 06:56:29;;;;;;;6.32;3.28;;;18.20;80.70;;;;;;5009547;28;20509;-71
2022/07/16 06:59:01;;;;;;;5.28;3.47;;;18.10;81.30;;;;;;5007757;28;20477;-71
2022/07/16 07:01:33;;;;;;;6.88;3.70;;;18.20;79.80;;;;;;5009849;28;20041;-70
2022/07/16 07:04:05;;;;;;;5.72;3.47;;;18.30;78.80;;;;;;5003423;28;20074;-71
2022/07/16 07:06:36;;;;;;;4.82;3.55;;;18.30;79.20;;;;;;4986285;28;20038;-70
2022/07/16 07:09:08;;;;;;;17.17;11.70;;;18.40;78.40;;;;;;5010098;28;20409;-71
2022/07/16 07:11:42;;;;;;;5.10;3.20;;;18.50;77.90;;;;;;5009707;28;20699;-71
2022/07/16 07:14:13;;;;;;;3.97;3.03;;;18.60;77.80;;;;;;5009665;28;20497;-71
2022/07/16 07:16:45;;;;;;;4.78;3.28;;;18.70;77.70;;;;;;4992304;28;20060;-71
2022/07/16 07:19:17;;;;;;;3.83;3.03;;;18.80;78.00;;;;;;5011249;28;20046;-71
2022/07/16 07:21:49;;;;;;;5.95;4.28;;;18.90;77.70;;;;;;4985865;28;20034;-71
2022/07/16 07:24:20;;;;;;;5.20;3.40;;;19.00;79.20;;;;;;4984063;28;20048;-71
2022/07/16 07:26:52;;;;;;;6.63;3.53;;;19.00;78.50;;;;;;4992164;28;20038;-71
2022/07/16 07:29:24;;;;;;;3.85;2.85;;;19.10;77.60;;;;;;4993292;28;20049;-71
2022/07/16 07:31:55;;;;;;;7.07;3.15;;;19.10;76.90;;;;;;5009241;28;20045;-71
2022/07/16 07:34:27;;;;;;;7.65;3.67;;;19.20;74.30;;;;;;4994963;28;20056;-71
2022/07/16 07:36:59;;;;;;;5.78;3.25;;;19.30;73.90;;;;;;5008938;28;20418;-71
2022/07/16 07:39:31;;;;;;;7.10;3.83;;;19.30;73.40;;;;;;4991349;28;20038;-71
2022/07/16 07:42:03;;;;;;;4.05;2.90;;;19.40;73.90;;;;;;4976685;28;20585;-71
2022/07/16 07:44:29;;;;;;;7.70;4.72;;;19.50;73.90;;;;;;4993317;28;20098;-71
2022/07/16 07:47:01;;;;;;;7.20;4.07;;;19.50;73.00;;;;;;4992918;28;20044;-71
2022/07/16 07:49:33;;;;;;;4.65;3.20;;;19.60;73.60;;;;;;5003362;28;20038;-71
2022/07/16 07:52:06;;;;;;;3.70;3.30;;;19.70;74.40;;;;;;5007818;28;20168;-71
2022/07/16 07:54:38;;;;;;;8.65;4.53;;;19.80;69.70;;;;;;5014221;28;20042;-71
2022/07/16 07:57:10;;;;;;;6.90;4.85;;;19.80;69.10;;;;;;5000162;28;20056;-71
2022/07/16 07:59:42;;;;;;;6.20;3.50;;;19.90;68.10;;;;;;5013593;28;20042;-71
2022/07/16 08:02:14;;;;;;;5.80;3.90;;;20.00;69.30;;;;;;5020079;28;20128;-71
2022/07/16 08:04:40;;;;;;;6.35;3.35;;;20.00;69.50;;;;;;5006763;28;20072;-70
2022/07/16 08:07:12;;;;;;;4.28;2.80;;;20.20;70.00;;;;;;5004440;28;20045;-71
2022/07/16 08:09:44;;;;;;;9.30;3.90;;;20.30;70.10;;;;;;5014187;28;20049;-70
2022/07/16 08:12:16;;;;;;;6.70;3.10;;;20.40;69.80;;;;;;4998112;28;20042;-71
2022/07/16 08:14:47;;;;;;;4.03;3.28;;;20.40;69.70;;;;;;5013354;28;20420;-71
2022/07/16 08:17:19;;;;;;;4.13;3.17;;;20.50;69.60;;;;;;4997446;28;20049;-71
2022/07/16 08:19:51;;;;;;;5.45;3.53;;;20.60;68.80;;;;;;5013672;28;20046;-71
2022/07/16 08:22:23;;;;;;;17.85;4.03;;;20.70;69.50;;;;;;5017716;28;20068;-71
2022/07/16 08:27:45;;;;;;;5.68;3.88;;;20.90;69.50;;;;;;5007468;28;20042;-71
2022/07/16 08:30:17;;;;;;;4.78;3.15;;;21.00;68.40;;;;;;5012322;28;20128;-71
2022/07/16 08:32:49;;;;;;;4.30;3.08;;;21.10;67.60;;;;;;5023568;28;20033;-71
2022/07/16 08:35:21;;;;;;;4.68;3.60;;;21.20;67.00;;;;;;5013007;28;20048;-73
2022/07/16 08:37:53;;;;;;;7.18;3.75;;;21.20;66.10;;;;;;5013098;28;20038;-71
2022/07/16 08:40:25;;;;;;;7.38;3.75;;;21.30;65.40;;;;;;4994294;28;20606;-71
2022/07/16 08:42:57;;;;;;;4.72;3.40;;;21.40;65.30;;;;;;5001074;28;20042;-71
2022/07/16 08:45:30;;;;;;;5.82;3.00;;;21.50;65.50;;;;;;4991770;28;20053;-71
2022/07/16 08:48:02;;;;;;;4.32;3.08;;;21.60;64.70;;;;;;5012036;28;20498;-70
2022/07/16 08:50:34;;;;;;;7.85;3.55;;;21.60;63.10;;;;;;5012098;28;20502;-70
2022/07/16 08:53:08;;;;;;;4.68;3.22;;;21.60;61.60;;;;;;4983425;28;20697;-71
2022/07/16 08:55:41;;;;;;;4.15;3.30;;;21.60;61.80;;;;;;5008150;28;20524;-71
2022/07/16 08:58:13;;;;;;;6.20;3.22;;;21.70;62.80;;;;;;4996179;28;20050;-71
2022/07/16 09:00:45;;;;;;;7.72;3.33;;;21.80;62.30;;;;;;4986208;28;20042;-71
2022/07/16 09:03:17;;;;;;;5.03;3.17;;;21.80;62.20;;;;;;5013385;28;20034;-71
2022/07/16 09:05:50;;;;;;;5.47;3.33;;;21.80;61.00;;;;;;5003731;28;20045;-71
2022/07/16 09:08:22;;;;;;;3.67;2.95;;;21.80;61.60;;;;;;4980306;28;20060;-71
2022/07/16 09:10:54;;;;;;;4.32;3.40;;;21.80;61.00;;;;;;5002078;28;20092;-72
2022/07/16 09:13:26;;;;;;;6.65;3.20;;;21.90;60.50;;;;;;5005587;28;20405;-72
2022/07/16 09:15:58;;;;;;;5.70;3.65;;;21.90;60.00;;;;;;4992273;28;20084;-71
2022/07/16 09:18:30;;;;;;;3.50;3.17;;;22.00;60.30;;;;;;5007444;28;20050;-70
2022/07/16 09:21:02;;;;;;;4.22;3.20;;;22.10;59.30;;;;;;4992098;28;20049;-71
2022/07/16 09:23:36;;;;;;;3.80;3.17;;;22.20;59.50;;;;;;4994083;28;20031;-71
2022/07/16 09:26:12;;;;;;;3.13;2.78;;;22.30;59.40;;;;;;4988919;28;20053;-71
2022/07/16 09:28:47;;;;;;;4.65;3.38;;;22.40;59.20;;;;;;5006062;28;20038;-71
2022/07/16 09:31:48;;;;;;;4.22;3.15;;;22.40;59.20;;;;;;4993332;28;20048;-73
2022/07/16 09:34:20;;;;;;;4.63;2.90;;;22.40;58.50;;;;;;4978488;28;20046;-71
2022/07/16 09:37:05;;;;;;;8.73;3.10;;;22.40;57.50;;;;;;4995656;28;20073;-71
2022/07/16 09:39:46;;;;;;;5.38;3.13;;;22.50;58.30;;;;;;4974024;28;20046;-72
2022/07/16 09:42:18;;;;;;;10.82;3.50;;;22.60;57.90;;;;;;4994915;28;20038;-71
2022/07/16 09:44:50;;;;;;;8.85;3.50;;;22.80;58.40;;;;;;5009246;28;20044;-71
2022/07/16 09:47:22;;;;;;;6.97;3.92;;;23.00;57.90;;;;;;5008123;28;20577;-71
2022/07/16 09:49:54;;;;;;;21.85;4.25;;;23.00;57.20;;;;;;5010939;28;20192;-71
2022/07/16 09:52:32;;;;;;;4.75;3.40;;;23.20;57.40;;;;;;4994489;28;20056;-71
2022/07/16 09:55:04;;;;;;;6.60;3.13;;;23.30;56.40;;;;;;5009118;28;20038;-71
2022/07/16 09:57:36;;;;;;;14.00;3.65;;;23.20;56.00;;;;;;4992460;28;20077;-71
2022/07/16 10:00:11;;;;;;;6.28;3.45;;;23.20;57.00;;;;;;5011814;28;20088;-71
2022/07/16 10:02:43;;;;;;;9.55;3.25;;;23.40;57.20;;;;;;5011204;28;20034;-71
2022/07/16 10:05:15;;;;;;;7.03;3.13;;;23.60;56.80;;;;;;4991377;28;20418;-72
2022/07/16 10:07:51;;;;;;;10.18;4.93;;;23.70;55.60;;;;;;5007813;28;20050;-71
2022/07/16 10:10:23;;;;;;;4.97;3.17;;;23.80;55.40;;;;;;5009881;28;20030;-71
2022/07/16 10:12:55;;;;;;;4.00;2.75;;;23.70;55.80;;;;;;5009810;28;20065;-71
2022/07/16 10:15:27;;;;;;;5.60;3.40;;;23.70;55.00;;;;;;4990964;28;20042;-71
2022/07/16 10:17:59;;;;;;;5.15;2.72;;;23.70;54.70;;;;;;4977386;28;20042;-71
2022/07/16 10:20:36;;;;;;;3.60;2.67;;;23.80;54.20;;;;;;5008377;28;20041;-71
2022/07/16 10:23:08;;;;;;;8.18;3.15;;;23.90;55.00;;;;;;5006690;28;20057;-72
2022/07/16 10:25:40;;;;;;;5.83;2.90;;;24.00;54.40;;;;;;5005300;28;20031;-71
2022/07/16 10:28:36;;;;;;;4.70;2.70;;;24.20;54.10;;;;;;5001499;28;20050;-72
2022/07/16 10:31:32;;;;;;;3.35;2.47;;;24.30;53.90;;;;;;5008282;28;20065;-72
2022/07/16 10:34:13;;;;;;;3.70;2.72;;;24.30;53.50;;;;;;5004786;28;20057;-72
2022/07/16 10:36:46;;;;;;;2.97;2.58;;;24.20;52.70;;;;;;4994415;28;20075;-71
2022/07/16 10:39:19;;;;;;;3.85;2.53;;;24.30;53.40;;;;;;4978414;28;20054;-72
2022/07/16 10:41:52;;;;;;;3.20;2.88;;;24.40;53.60;;;;;;4998548;28;20414;-74
2022/07/16 10:44:26;;;;;;;3.83;2.53;;;24.50;53.90;;;;;;4992474;28;20092;-71
2022/07/16 10:47:00;;;;;;;3.97;2.53;;;24.40;53.40;;;;;;5008576;28;20034;-71
2022/07/16 10:49:32;;;;;;;3.22;2.40;;;24.50;53.10;;;;;;4993604;28;20608;-71
2022/07/16 10:52:06;;;;;;;4.75;2.70;;;24.60;52.80;;;;;;4995458;28;20412;-72
2022/07/16 10:54:39;;;;;;;6.20;3.38;;;24.70;52.70;;;;;;4977150;28;20030;-71
2022/07/16 10:57:12;;;;;;;4.75;2.63;;;24.80;53.00;;;;;;4996501;28;20034;-72
2022/07/16 10:59:42;;;;;;;5.35;2.50;;;24.80;52.50;;;;;;5007914;28;20040;-71
2022/07/16 11:02:16;;;;;;;3.78;2.40;;;24.80;51.90;;;;;;4964993;28;20045;-72
2022/07/16 11:04:48;;;;;;;2.63;2.42;;;24.80;52.60;;;;;;4993108;28;20064;-71
2022/07/16 11:07:22;;;;;;;5.85;2.85;;;24.80;51.70;;;;;;4990327;28;20049;-71
2022/07/16 11:09:54;;;;;;;6.30;2.63;;;25.00;52.30;;;;;;4993651;28;20108;-72
2022/07/16 11:12:30;;;;;;;4.90;3.85;;;25.10;52.40;;;;;;5011968;28;20099;-72
2022/07/16 11:15:02;;;;;;;19.73;3.15;;;25.20;52.50;;;;;;5009338;28;20081;-72
2022/07/16 11:17:33;;;;;;;6.82;2.70;;;25.30;52.70;;;;;;4983426;28;20395;-72
2022/07/16 11:20:09;;;;;;;7.00;3.30;;;25.30;51.90;;;;;;5009916;28;20060;-72
2022/07/16 11:22:41;;;;;;;3.53;2.10;;;25.40;52.70;;;;;;5007464;28;20038;-72
2022/07/16 11:25:12;;;;;;;3.42;2.70;;;25.50;52.00;;;;;;5008876;28;20117;-71
2022/07/16 11:27:44;;;;;;;4.15;2.50;;;25.50;52.60;;;;;;5007900;28;20048;-71
2022/07/16 11:30:16;;;;;;;2.92;2.50;;;25.50;51.70;;;;;;4990643;28;20502;-71
2022/07/16 11:32:48;;;;;;;3.60;2.55;;;25.40;51.90;;;;;;4989945;28;20046;-71
2022/07/16 11:35:20;;;;;;;4.88;2.60;;;25.60;53.50;;;;;;5013979;28;20042;-71
2022/07/16 11:37:54;;;;;;;3.15;2.35;;;25.50;51.40;;;;;;5009874;28;20050;-71
2022/07/16 11:40:33;;;;;;;4.82;2.33;;;25.40;52.30;;;;;;5018243;28;20401;-72
2022/07/16 11:43:05;;;;;;;3.42;2.30;;;25.40;52.10;;;;;;5000004;28;20048;-70
2022/07/16 11:45:42;;;;;;;5.78;2.72;;;25.50;52.80;;;;;;4994271;28;20052;-71
2022/07/16 11:48:15;;;;;;;8.25;2.40;;;25.70;51.90;;;;;;5014360;28;20034;-71
2022/07/16 11:50:47;;;;;;;;;;;25.90;51.40;;;;;;4981736;28;20046;-70
2022/07/16 11:53:32;;;;;;;2.88;2.25;;;25.90;50.00;;;;;;5008020;28;19921;-70
2022/07/16 11:56:05;;;;;;;6.78;2.58;;;25.90;50.20;;;;;;4987974;28;20490;-71
2022/07/16 11:58:37;;;;;;;;;;;26.00;50.00;;;;;;5014859;28;20065;-70
2022/07/16 12:01:09;;;;;;;3.35;2.20;;;26.30;49.80;;;;;;4994133;28;20385;-71
2022/07/16 12:03:53;;;;;;;5.70;2.50;;;26.40;49.70;;;;;;5013311;28;20085;-71
2022/07/16 12:06:24;;;;;;;4.68;2.25;;;26.30;49.70;;;;;;5010550;28;20312;-71
2022/07/16 12:08:56;;;;;;;10.05;3.63;;;26.20;49.30;;;;;;5013138;28;20042;-71
2022/07/16 12:11:33;;;;;;;6.73;2.37;;;26.00;50.80;;;;;;5010432;28;20045;-71
2022/07/16 12:14:04;;;;;;;4.32;2.60;;;26.10;49.30;;;;;;5013720;28;20049;-72
2022/07/16 12:16:36;;;;;;;4.35;2.35;;;25.90;49.00;;;;;;5014088;28;20410;-72
2022/07/16 12:19:12;;;;;;;4.13;2.10;;;25.90;49.00;;;;;;5011841;28;20042;-70
2022/07/16 12:21:47;;;;;;;2.67;2.38;;;26.00;48.50;;;;;;4999654;28;20037;-72
2022/07/16 12:24:28;;;;;;;4.55;2.60;;;26.10;47.60;;;;;;4985262;28;20054;-71
2022/07/16 12:27:00;;;;;;;4.15;2.10;;;26.40;47.50;;;;;;5013129;28;20041;-71
2022/07/16 12:29:39;;;;;;;2.88;2.20;;;26.50;47.60;;;;;;5013408;28;20402;-72
2022/07/16 12:32:11;;;;;;;2.85;2.17;;;26.60;47.10;;;;;;4995779;28;20614;-71
2022/07/16 12:34:44;;;;;;;4.30;2.17;;;26.70;47.80;;;;;;5009946;28;20048;-71
2022/07/16 12:37:15;;;;;;;3.28;2.03;;;26.80;47.60;;;;;;5010557;28;20053;-70
2022/07/16 12:39:47;;;;;;;4.60;2.10;;;26.90;47.40;;;;;;5011668;28;20053;-72
2022/07/16 12:42:19;;;;;;;3.42;2.30;;;26.90;47.00;;;;;;4996730;28;20056;-71
2022/07/16 12:44:46;;;;;;;5.20;2.28;;;26.80;45.90;;;;;;5011564;28;20034;-70
2022/07/16 12:47:17;;;;;;;6.50;2.55;;;26.80;47.10;;;;;;4994218;28;20049;-71
2022/07/16 12:49:49;;;;;;;9.50;2.63;;;26.80;47.30;;;;;;5012757;28;20041;-72
2022/07/16 12:52:21;;;;;;;3.35;2.28;;;26.80;45.90;;;;;;5043360;23;20054;-70
2022/07/16 13:00:35;;;;;;;5.18;2.40;;;26.80;47.00;;;;;;5055987;28;20061;-71
2022/07/16 13:03:07;;;;;;;4.43;2.10;;;26.80;46.70;;;;;;5067596;28;20396;-69
2022/07/16 13:05:38;;;;;;;3.83;2.00;;;26.90;47.20;;;;;;5075614;28;20041;-69
2022/07/16 13:08:10;;;;;;;4.15;1.95;;;26.80;46.00;;;;;;5068192;28;20041;-69
2022/07/16 13:10:42;;;;;;;4.35;2.20;;;26.90;46.50;;;;;;5075011;28;20411;-70
2022/07/16 13:13:14;;;;;;;2.53;2.03;;;26.90;46.00;;;;;;5079261;28;20458;-69
2022/07/16 13:15:46;;;;;;;5.93;2.13;;;27.10;46.10;;;;;;5078761;28;20504;-69
2022/07/16 13:18:17;;;;;;;3.20;1.80;;;27.30;46.50;;;;;;5074775;28;20052;-68
2022/07/16 13:20:49;;;;;;;4.40;1.98;;;27.30;44.90;;;;;;5079828;28;20424;-68
2022/07/16 13:23:21;;;;;;;5.22;2.10;;;27.30;45.20;;;;;;5070493;28;20484;-69